Terminal Aerodrome Forecast
Issued by NWS Jackson, KY

Home | Current Version | Previous Version | Text Only | Print | Product List | Glossary On
Versions: 1 2 3 4 5 6 7 8 9 10 11 12 13
000
FTUS43 KJKL 242300
TAFJKL
TAF
KJKL 242330Z 2500/2524 VRB03KT P6SM SCT050
     FM251000 00000KT 2SM BR SKC
     FM251300 VRB03KT P6SM SCT050=

USA.gov is the U.S. government's official web portal to all federal, state and local government web resources and services.